createdAt,value
2022-11-16T00:05:32.986Z,92704.88
2022-11-16T00:13:54.608Z,92693.39
2022-11-16T00:22:17.604Z,92692.59
2022-11-16T00:30:40.187Z,92694.38
2022-11-16T00:39:02.855Z,92711.03
2022-11-16T00:47:24.504Z,92701.45
2022-11-16T00:55:47.335Z,92694.90
2022-11-16T01:04:10.603Z,92696.21
2022-11-16T01:12:32.179Z,92704.52
2022-11-16T01:20:54.397Z,92712.55
2022-11-16T01:29:16.446Z,92723.30
2022-11-16T01:37:44.119Z,92721.34
2022-11-16T01:46:06.696Z,92719.75
2022-11-16T01:54:32.100Z,92737.01
2022-11-16T02:02:54.605Z,92751.02
2022-11-16T02:11:54.671Z,92753.20
2022-11-16T02:20:38.750Z,92754.37
2022-11-16T02:29:19.689Z,92750.13
2022-11-16T02:37:53.826Z,92755.11
2022-11-16T02:46:25.487Z,92760.45
2022-11-16T02:54:47.187Z,92746.23
2022-11-16T03:03:24.598Z,92750.16
2022-11-16T03:11:59.001Z,92742.63
2022-11-16T03:20:28.852Z,92731.98
2022-11-16T03:29:00.527Z,92716.94
2022-11-16T03:37:25.441Z,92700.12
2022-11-16T03:45:48.207Z,92696.14
2022-11-16T03:54:10.254Z,92682.20
2022-11-16T04:02:34.129Z,92673.68
2022-11-16T04:11:14.583Z,92673.27
2022-11-16T04:19:58.358Z,92661.38
2022-11-16T04:28:30.464Z,92659.19
2022-11-16T04:37:15.414Z,92688.24
2022-11-16T04:45:56.014Z,92697.71
2022-11-16T04:54:21.645Z,92691.06
2022-11-16T05:02:44.197Z,92662.41
2022-11-16T05:11:06.120Z,92641.77
2022-11-16T05:19:46.919Z,92599.52
2022-11-16T05:28:08.766Z,92588.80
2022-11-16T05:36:34.366Z,92600.59
2022-11-16T05:44:56.834Z,92600.04
2022-11-16T05:53:18.467Z,92619.35
2022-11-16T06:01:40.234Z,92633.23
2022-11-16T06:10:03.762Z,92638.59
2022-11-16T06:18:27.613Z,92651.91
2022-11-16T06:26:49.764Z,92676.55
2022-11-16T06:35:12.138Z,92664.02
2022-11-16T06:43:34.122Z,92653.90
2022-11-16T06:51:56.010Z,92663.85
2022-11-16T07:00:18.583Z,92666.78
2022-11-16T07:08:41.902Z,92663.61
2022-11-16T07:17:09.270Z,92695.04
2022-11-16T07:25:33.338Z,92713.27
2022-11-16T07:34:53.382Z,92709.66
2022-11-16T07:43:39.939Z,92689.60
2022-11-16T07:52:10.273Z,92669.83
2022-11-16T08:00:52.083Z,92694.23
2022-11-16T08:09:14.170Z,92723.79
2022-11-16T08:17:36.267Z,92696.40
2022-11-16T08:26:01.173Z,92665.61
2022-11-16T08:34:24.083Z,92640.69
2022-11-16T08:42:48.043Z,92644.55
2022-11-16T08:51:18.576Z,92661.56
2022-11-16T08:59:45.385Z,92669.55
2022-11-16T09:08:08.521Z,92639.50
2022-11-16T09:16:30.263Z,92602.11
2022-11-16T09:24:52.037Z,92590.30
2022-11-16T09:44:09.006Z,92584.30
2022-11-16T09:52:33.498Z,92572.19
2022-11-16T10:01:07.429Z,92576.80
2022-11-16T10:09:30.075Z,92598.77
2022-11-16T10:17:51.699Z,92605.67
2022-11-16T10:26:27.578Z,92597.77
2022-11-16T10:35:01.336Z,92613.85
2022-11-16T10:43:27.712Z,92645.14
2022-11-16T10:51:49.914Z,92654.84
2022-11-16T11:00:12.884Z,92668.36
2022-11-16T11:08:37.123Z,92689.27
2022-11-16T11:17:11.827Z,92731.66
2022-11-16T11:25:41.143Z,92754.73
2022-11-16T11:34:10.913Z,92757.16
2022-11-16T11:42:33.255Z,92781.79
2022-11-16T11:51:00.526Z,92783.10
2022-11-16T11:59:24.815Z,92778.35
2022-11-16T12:08:04.108Z,92786.85
2022-11-16T12:17:06.579Z,92811.27
2022-11-16T12:25:41.095Z,92824.71
2022-11-16T12:34:09.629Z,92850.51
2022-11-16T12:43:00.452Z,92832.16
2022-11-16T12:51:31.778Z,92804.16
2022-11-16T13:00:07.159Z,92796.23
2022-11-16T13:08:47.169Z,92803.25
2022-11-16T13:17:17.116Z,92790.64
2022-11-16T13:26:09.614Z,92790.80
2022-11-16T13:34:34.994Z,92804.47
2022-11-16T13:43:09.535Z,92809.23
2022-11-16T13:51:31.532Z,92799.19
2022-11-16T14:00:09.793Z,92788.13
2022-11-16T14:08:37.934Z,92781.71
2022-11-16T14:17:00.081Z,92765.55
2022-11-16T14:25:49.666Z,92752.12
2022-11-16T14:34:17.870Z,92745.79
2022-11-16T14:43:16.842Z,92732.41
2022-11-16T14:51:46.977Z,92690.40
2022-11-16T15:00:24.969Z,92632.52
2022-11-16T15:08:55.188Z,92573.61
2022-11-16T15:17:19.635Z,92527.45
2022-11-16T15:25:42.555Z,92463.75
2022-11-16T15:34:04.298Z,92416.41
2022-11-16T15:42:33.679Z,92378.66
2022-11-16T15:51:19.829Z,92345.69
2022-11-16T15:59:48.158Z,92314.98
2022-11-16T16:08:22.418Z,92291.02
2022-11-16T16:16:50.479Z,92276.10
2022-11-16T16:25:30.405Z,92259.35
2022-11-16T16:33:52.178Z,92260.02
2022-11-16T16:42:16.726Z,92250.88
2022-11-16T16:50:38.841Z,92254.72
2022-11-16T16:59:00.438Z,92249.52
2022-11-16T17:07:22.391Z,92243.40
2022-11-16T17:15:44.379Z,92237.10
2022-11-16T17:24:06.290Z,92235.09
2022-11-16T17:32:29.726Z,92237.33
2022-11-16T17:40:51.295Z,92215.84
2022-11-16T17:49:12.906Z,92215.46
2022-11-16T17:57:34.789Z,92217.08
2022-11-16T18:06:04.398Z,92209.55
2022-11-16T18:14:26.304Z,92212.52
2022-11-16T18:22:47.931Z,92205.88
2022-11-16T18:31:12.261Z,92201.96
2022-11-16T18:39:33.930Z,92206.40
2022-11-16T18:47:55.657Z,92216.13
2022-11-16T18:56:18.297Z,92213.83
2022-11-16T19:04:39.885Z,92197.34
2022-11-16T19:13:01.483Z,92199.42
2022-11-16T19:21:23.363Z,92189.05
2022-11-16T19:29:45.129Z,92191.17
2022-11-16T19:38:09.180Z,92187.44
2022-11-16T19:46:32.600Z,92172.95
2022-11-16T19:54:58.594Z,92147.89
2022-11-16T20:03:21.511Z,92130.14
2022-11-16T20:11:45.430Z,92115.31
2022-11-16T20:20:08.598Z,92114.21
2022-11-16T20:28:33.747Z,92098.71
2022-11-16T20:36:55.334Z,92090.02
2022-11-16T20:45:16.867Z,92078.80
2022-11-16T20:53:38.905Z,92070.46
2022-11-16T21:02:00.407Z,92060.79
2022-11-16T21:10:22.005Z,92056.02
2022-11-16T21:18:43.698Z,92055.17
2022-11-16T21:27:05.407Z,92057.66
2022-11-16T21:35:27.157Z,92046.60
2022-11-16T21:43:49.926Z,92033.38
2022-11-16T21:52:11.500Z,92024.54
2022-11-16T22:00:33.495Z,92003.89
2022-11-16T22:08:55.020Z,91979.00
2022-11-16T22:17:16.825Z,91964.80
2022-11-16T22:25:38.574Z,91955.85
2022-11-16T22:34:00.249Z,91952.05
2022-11-16T22:42:22.477Z,91934.06
2022-11-16T22:50:44.294Z,91927.89
2022-11-16T22:59:06.031Z,91927.22
2022-11-16T23:07:27.705Z,91928.04
2022-11-16T23:15:49.354Z,91907.56
2022-11-16T23:24:33.585Z,91886.48
2022-11-16T23:32:55.143Z,91864.66
2022-11-16T23:41:35.286Z,91862.56
2022-11-16T23:49:56.941Z,91860.29
2022-11-16T23:58:18.587Z,91865.83
